sensor_id;sensor_type;location;lat;lon;timestamp;temperature;humidity
64111;DHT22;50401;48.188;11.566;2023-04-04T00:51:28;1.23;65.68
64111;DHT22;50401;48.188;11.566;2023-04-04T00:53:54;1.16;65.65
64111;DHT22;50401;48.188;11.566;2023-04-04T00:56:20;1.07;66.09
64111;DHT22;50401;48.188;11.566;2023-04-04T00:58:49;1.07;66.08
64111;DHT22;50401;48.188;11.566;2023-04-04T01:01:16;1.08;66.14
64111;DHT22;50401;48.188;11.566;2023-04-04T01:06:54;0.92;66.78
64111;DHT22;50401;48.188;11.566;2023-04-04T01:09:23;0.95;66.72
64111;DHT22;50401;48.188;11.566;2023-04-04T01:11:51;0.96;66.77
64111;DHT22;50401;48.188;11.566;2023-04-04T01:14:17;0.90;66.86
64111;DHT22;50401;48.188;11.566;2023-04-04T01:16:43;0.90;66.97
64111;DHT22;50401;48.188;11.566;2023-04-04T01:19:15;0.85;67.21
64111;DHT22;50401;48.188;11.566;2023-04-04T01:21:45;0.81;67.38
64111;DHT22;50401;48.188;11.566;2023-04-04T01:24:15;0.75;67.43
64111;DHT22;50401;48.188;11.566;2023-04-04T01:55:50;0.44;68.10
64111;DHT22;50401;48.188;11.566;2023-04-04T01:58:16;0.38;67.96
64111;DHT22;50401;48.188;11.566;2023-04-04T02:00:42;0.33;68.24
64111;DHT22;50401;48.188;11.566;2023-04-04T02:03:08;0.36;68.24
64111;DHT22;50401;48.188;11.566;2023-04-04T02:05:37;0.33;68.10
64111;DHT22;50401;48.188;11.566;2023-04-04T02:08:03;0.33;68.01
64111;DHT22;50401;48.188;11.566;2023-04-04T02:10:31;0.36;67.90
64111;DHT22;50401;48.188;11.566;2023-04-04T02:12:56;0.37;67.84
64111;DHT22;50401;48.188;11.566;2023-04-04T02:15:23;0.34;67.87
64111;DHT22;50401;48.188;11.566;2023-04-04T02:20:57;0.36;68.02
64111;DHT22;50401;48.188;11.566;2023-04-04T02:23:23;0.23;68.05
64111;DHT22;50401;48.188;11.566;2023-04-04T02:25:49;0.23;68.26
64111;DHT22;50401;48.188;11.566;2023-04-04T02:28:15;0.31;68.16
64111;DHT22;50401;48.188;11.566;2023-04-04T02:30:41;0.26;68.03
64111;DHT22;50401;48.188;11.566;2023-04-04T02:33:07;0.29;68.18
64111;DHT22;50401;48.188;11.566;2023-04-04T02:35:33;0.12;68.51
64111;DHT22;50401;48.188;11.566;2023-04-04T02:38:01;0.21;68.45
64111;DHT22;50401;48.188;11.566;2023-04-04T02:40:35;0.10;68.49
64111;DHT22;50401;48.188;11.566;2023-04-04T02:43:03;0.06;68.62
64111;DHT22;50401;48.188;11.566;2023-04-04T02:45:35;0.06;68.83
64111;DHT22;50401;48.188;11.566;2023-04-04T02:48:03;0.13;68.71
64111;DHT22;50401;48.188;11.566;2023-04-04T02:50:29;0.05;68.75
64111;DHT22;50401;48.188;11.566;2023-04-04T02:53:02;0.05;68.69
64111;DHT22;50401;48.188;11.566;2023-04-04T02:55:31;0.06;68.78
64111;DHT22;50401;48.188;11.566;2023-04-04T02:58:23;-0.11;69.36
64111;DHT22;50401;48.188;11.566;2023-04-04T03:01:15;-0.11;69.29
64111;DHT22;50401;48.188;11.566;2023-04-04T03:03:42;-0.14;69.55
64111;DHT22;50401;48.188;11.566;2023-04-04T03:06:09;-0.16;69.46
64111;DHT22;50401;48.188;11.566;2023-04-04T03:08:35;-0.14;69.42
64111;DHT22;50401;48.188;11.566;2023-04-04T03:11:02;-0.14;69.33
64111;DHT22;50401;48.188;11.566;2023-04-04T03:13:28;-0.08;69.30
64111;DHT22;50401;48.188;11.566;2023-04-04T03:16:02;-0.04;69.17
64111;DHT22;50401;48.188;11.566;2023-04-04T03:18:29;-0.05;69.16
64111;DHT22;50401;48.188;11.566;2023-04-04T03:20:55;0.01;69.18
64111;DHT22;50401;48.188;11.566;2023-04-04T03:23:22;-0.11;69.41
64111;DHT22;50401;48.188;11.566;2023-04-04T03:25:48;-0.11;69.32
64111;DHT22;50401;48.188;11.566;2023-04-04T03:28:15;-0.09;69.31
64111;DHT22;50401;48.188;11.566;2023-04-04T03:30:44;-0.18;69.51
64111;DHT22;50401;48.188;11.566;2023-04-04T03:33:11;-0.16;69.56
64111;DHT22;50401;48.188;11.566;2023-04-04T03:35:41;-0.21;69.66
64111;DHT22;50401;48.188;11.566;2023-04-04T03:38:07;-0.23;69.72
64111;DHT22;50401;48.188;11.566;2023-04-04T03:40:34;-0.39;70.03
64111;DHT22;50401;48.188;11.566;2023-04-04T03:42:59;-0.39;70.02
64111;DHT22;50401;48.188;11.566;2023-04-04T03:45:27;-0.47;70.28
64111;DHT22;50401;48.188;11.566;2023-04-04T03:47:57;-0.47;70.35
64111;DHT22;50401;48.188;11.566;2023-04-04T03:50:25;-0.56;70.44
64111;DHT22;50401;48.188;11.566;2023-04-04T03:52:51;-0.49;70.48
64111;DHT22;50401;48.188;11.566;2023-04-04T03:55:17;-0.40;70.21
64111;DHT22;50401;48.188;11.566;2023-04-04T03:57:43;-0.30;70.16
64111;DHT22;50401;48.188;11.566;2023-04-04T04:00:09;-0.44;70.33
64111;DHT22;50401;48.188;11.566;2023-04-04T04:02:35;-0.40;70.41
64111;DHT22;50401;48.188;11.566;2023-04-04T04:05:01;-0.40;70.11
64111;DHT22;50401;48.188;11.566;2023-04-04T04:07:28;-0.39;70.19
64111;DHT22;50401;48.188;11.566;2023-04-04T04:09:54;-0.39;70.25
64111;DHT22;50401;48.188;11.566;2023-04-04T04:12:30;-0.50;70.33
64111;DHT22;50401;48.188;11.566;2023-04-04T04:15:53;-0.54;70.44
64111;DHT22;50401;48.188;11.566;2023-04-04T04:18:22;-0.58;70.42
64111;DHT22;50401;48.188;11.566;2023-04-04T04:20:50;-0.60;70.52
64111;DHT22;50401;48.188;11.566;2023-04-04T04:23:24;-0.53;70.46
64111;DHT22;50401;48.188;11.566;2023-04-04T04:25:51;-0.56;70.21
64111;DHT22;50401;48.188;11.566;2023-04-04T04:28:16;-0.47;70.10
64111;DHT22;50401;48.188;11.566;2023-04-04T04:30:42;-0.47;69.91
64111;DHT22;50401;48.188;11.566;2023-04-04T04:33:09;-0.52;69.88
64111;DHT22;50401;48.188;11.566;2023-04-04T04:35:36;-0.61;70.10
64111;DHT22;50401;48.188;11.566;2023-04-04T04:38:04;-0.56;70.15
64111;DHT22;50401;48.188;11.566;2023-04-04T04:40:33;-0.53;70.08
64111;DHT22;50401;48.188;11.566;2023-04-04T04:43:01;-0.53;69.79
64111;DHT22;50401;48.188;11.566;2023-04-04T04:45:27;-0.67;69.96
64111;DHT22;50401;48.188;11.566;2023-04-04T04:47:56;-0.53;70.10
64111;DHT22;50401;48.188;11.566;2023-04-04T04:50:38;-0.46;69.69
64111;DHT22;50401;48.188;11.566;2023-04-04T04:53:10;-0.49;69.75
64111;DHT22;50401;48.188;11.566;2023-04-04T04:55:45;-0.50;69.69
64111;DHT22;50401;48.188;11.566;2023-04-04T04:58:26;-0.60;69.95
64111;DHT22;50401;48.188;11.566;2023-04-04T05:00:55;-0.47;69.89
64111;DHT22;50401;48.188;11.566;2023-04-04T05:03:24;-0.46;69.55
64111;DHT22;50401;48.188;11.566;2023-04-04T05:05:50;-0.44;69.44
64111;DHT22;50401;48.188;11.566;2023-04-04T05:08:20;-0.61;69.83
64111;DHT22;50401;48.188;11.566;2023-04-04T05:10:48;-0.54;69.76
64111;DHT22;50401;48.188;11.566;2023-04-04T05:13:17;-0.53;69.92
64111;DHT22;50401;48.188;11.566;2023-04-04T05:15:45;-0.58;69.96
64111;DHT22;50401;48.188;11.566;2023-04-04T05:18:12;-0.26;69.31
64111;DHT22;50401;48.188;11.566;2023-04-04T05:20:39;-0.49;69.65
64111;DHT22;50401;48.188;11.566;2023-04-04T05:23:05;-0.09;69.19
64111;DHT22;50401;48.188;11.566;2023-04-04T05:25:31;-0.15;69.53
64111;DHT22;50401;48.188;11.566;2023-04-04T05:27:58;0.40;67.51
64111;DHT22;50401;48.188;11.566;2023-04-04T05:30:24;1.12;65.60
64111;DHT22;50401;48.188;11.566;2023-04-04T05:32:51;0.43;66.99
64111;DHT22;50401;48.188;11.566;2023-04-04T05:35:17;1.12;65.47
64111;DHT22;50401;48.188;11.566;2023-04-04T05:37:42;1.38;64.19
64111;DHT22;50401;48.188;11.566;2023-04-04T05:40:09;1.52;63.78
64111;DHT22;50401;48.188;11.566;2023-04-04T05:42:35;1.42;64.22
64111;DHT22;50401;48.188;11.566;2023-04-04T05:45:04;0.95;64.57
64111;DHT22;50401;48.188;11.566;2023-04-04T05:47:40;0.33;66.08
64111;DHT22;50401;48.188;11.566;2023-04-04T05:50:09;0.62;66.60
64111;DHT22;50401;48.188;11.566;2023-04-04T05:52:41;0.61;66.56
64111;DHT22;50401;48.188;11.566;2023-04-04T05:55:12;0.88;65.35
64111;DHT22;50401;48.188;11.566;2023-04-04T05:57:49;0.41;66.59
64111;DHT22;50401;48.188;11.566;2023-04-04T06:00:23;0.37;67.01
64111;DHT22;50401;48.188;11.566;2023-04-04T06:02:49;-0.21;68.49
64111;DHT22;50401;48.188;11.566;2023-04-04T06:05:21;-0.04;68.20
64111;DHT22;50401;48.188;11.566;2023-04-04T06:07:59;-0.02;67.82
64111;DHT22;50401;48.188;11.566;2023-04-04T06:10:55;0.27;67.20
64111;DHT22;50401;48.188;11.566;2023-04-04T06:16:52;0.10;68.36
64111;DHT22;50401;48.188;11.566;2023-04-04T06:23:36;0.13;66.95
64111;DHT22;50401;48.188;11.566;2023-04-04T06:26:21;0.51;67.16
64111;DHT22;50401;48.188;11.566;2023-04-04T06:29:02;0.21;66.67
64111;DHT22;50401;48.188;11.566;2023-04-04T06:31:55;0.65;66.19
64111;DHT22;50401;48.188;11.566;2023-04-04T06:40:11;0.64;66.14
64111;DHT22;50401;48.188;11.566;2023-04-04T06:42:37;1.10;64.72
64111;DHT22;50401;48.188;11.566;2023-04-04T06:45:03;0.47;65.53
64111;DHT22;50401;48.188;11.566;2023-04-04T06:47:32;1.27;66.30
64111;DHT22;50401;48.188;11.566;2023-04-04T06:49:58;1.19;64.01
64111;DHT22;50401;48.188;11.566;2023-04-04T06:52:24;1.10;64.34
64111;DHT22;50401;48.188;11.566;2023-04-04T06:54:51;1.83;63.43
64111;DHT22;50401;48.188;11.566;2023-04-04T06:57:17;2.35;61.23
64111;DHT22;50401;48.188;11.566;2023-04-04T06:59:43;2.21;60.08
64111;DHT22;50401;48.188;11.566;2023-04-04T07:02:11;2.22;60.33
64111;DHT22;50401;48.188;11.566;2023-04-04T07:04:37;2.53;57.94
64111;DHT22;50401;48.188;11.566;2023-04-04T07:07:04;2.79;57.84
64111;DHT22;50401;48.188;11.566;2023-04-04T07:09:32;3.52;55.53
64111;DHT22;50401;48.188;11.566;2023-04-04T07:11:59;3.94;54.25
64111;DHT22;50401;48.188;11.566;2023-04-04T07:14:27;4.09;53.71
64111;DHT22;50401;48.188;11.566;2023-04-04T07:19:32;5.02;50.52
64111;DHT22;50401;48.188;11.566;2023-04-04T07:25:19;5.97;46.80
64111;DHT22;50401;48.188;11.566;2023-04-04T07:27:46;7.17;45.31
64111;DHT22;50401;48.188;11.566;2023-04-04T07:35:23;9.54;39.34
64111;DHT22;50401;48.188;11.566;2023-04-04T07:37:49;9.65;39.71
64111;DHT22;50401;48.188;11.566;2023-04-04T07:40:15;12.12;34.37
64111;DHT22;50401;48.188;11.566;2023-04-04T07:42:47;12.37;34.15
64111;DHT22;50401;48.188;11.566;2023-04-04T07:45:16;11.93;33.38
64111;DHT22;50401;48.188;11.566;2023-04-04T07:47:45;7.88;39.47
64111;DHT22;50401;48.188;11.566;2023-04-04T07:50:12;9.89;37.17
64111;DHT22;50401;48.188;11.566;2023-04-04T07:52:37;7.70;40.58
64111;DHT22;50401;48.188;11.566;2023-04-04T07:55:03;7.99;40.44
64111;DHT22;50401;48.188;11.566;2023-04-04T07:57:31;8.04;39.69
64111;DHT22;50401;48.188;11.566;2023-04-04T07:59:57;7.11;40.90
64111;DHT22;50401;48.188;11.566;2023-04-04T08:02:54;7.28;40.51
64111;DHT22;50401;48.188;11.566;2023-04-04T08:05:27;7.99;40.36
64111;DHT22;50401;48.188;11.566;2023-04-04T08:07:53;8.12;39.64
64111;DHT22;50401;48.188;11.566;2023-04-04T08:10:24;6.94;42.31
64111;DHT22;50401;48.188;11.566;2023-04-04T08:13:20;6.06;44.04
64111;DHT22;50401;48.188;11.566;2023-04-04T08:15:52;7.38;41.16
64111;DHT22;50401;48.188;11.566;2023-04-04T08:18:48;8.46;38.89
64111;DHT22;50401;48.188;11.566;2023-04-04T08:21:14;8.49;38.24
64111;DHT22;50401;48.188;11.566;2023-04-04T08:23:39;8.19;38.28
64111;DHT22;50401;48.188;11.566;2023-04-04T08:26:05;10.21;34.62
64111;DHT22;50401;48.188;11.566;2023-04-04T08:28:30;7.86;41.11
64111;DHT22;50401;48.188;11.566;2023-04-04T08:30:56;9.01;37.31
64111;DHT22;50401;48.188;11.566;2023-04-04T08:33:21;10.92;34.58
64111;DHT22;50401;48.188;11.566;2023-04-04T08:35:48;7.59;37.99
64111;DHT22;50401;48.188;11.566;2023-04-04T08:38:14;6.32;39.16
64111;DHT22;50401;48.188;11.566;2023-04-04T08:40:40;6.20;42.69
64111;DHT22;50401;48.188;11.566;2023-04-04T08:43:05;4.92;47.63
64111;DHT22;50401;48.188;11.566;2023-04-04T08:45:31;7.21;39.17
64111;DHT22;50401;48.188;11.566;2023-04-04T08:48:00;8.73;37.41
64111;DHT22;50401;48.188;11.566;2023-04-04T08:50:28;9.79;35.31
64111;DHT22;50401;48.188;11.566;2023-04-04T08:52:54;10.12;34.15
64111;DHT22;50401;48.188;11.566;2023-04-04T08:55:20;8.89;36.29
64111;DHT22;50401;48.188;11.566;2023-04-04T08:57:45;5.93;41.99
64111;DHT22;50401;48.188;11.566;2023-04-04T09:00:12;5.43;43.22
64111;DHT22;50401;48.188;11.566;2023-04-04T09:05:19;4.85;44.21
64111;DHT22;50401;48.188;11.566;2023-04-04T09:07:44;4.65;44.31
64111;DHT22;50401;48.188;11.566;2023-04-04T09:10:10;4.15;44.24
64111;DHT22;50401;48.188;11.566;2023-04-04T09:12:41;4.05;44.40
64111;DHT22;50401;48.188;11.566;2023-04-04T09:15:08;4.42;43.09
64111;DHT22;50401;48.188;11.566;2023-04-04T09:17:34;4.32;42.67
64111;DHT22;50401;48.188;11.566;2023-04-04T09:20:02;5.44;42.41
64111;DHT22;50401;48.188;11.566;2023-04-04T09:22:29;3.98;43.03
64111;DHT22;50401;48.188;11.566;2023-04-04T09:24:55;4.02;44.21
64111;DHT22;50401;48.188;11.566;2023-04-04T09:27:20;5.31;41.24
64111;DHT22;50401;48.188;11.566;2023-04-04T09:29:46;6.00;41.65
64111;DHT22;50401;48.188;11.566;2023-04-04T09:32:15;3.87;43.65
64111;DHT22;50401;48.188;11.566;2023-04-04T09:34:42;3.21;46.55
64111;DHT22;50401;48.188;11.566;2023-04-04T09:37:09;3.50;47.08
64111;DHT22;50401;48.188;11.566;2023-04-04T09:39:38;3.56;46.67
64111;DHT22;50401;48.188;11.566;2023-04-04T09:42:05;4.09;45.37
64111;DHT22;50401;48.188;11.566;2023-04-04T09:44:31;4.53;43.87
64111;DHT22;50401;48.188;11.566;2023-04-04T09:47:23;5.23;42.98
64111;DHT22;50401;48.188;11.566;2023-04-04T09:49:50;4.89;41.62
64111;DHT22;50401;48.188;11.566;2023-04-04T09:52:19;4.53;43.11
64111;DHT22;50401;48.188;11.566;2023-04-04T09:54:58;5.00;42.17
64111;DHT22;50401;48.188;11.566;2023-04-04T09:57:26;5.26;41.95
64111;DHT22;50401;48.188;11.566;2023-04-04T09:59:59;4.69;43.16
64111;DHT22;50401;48.188;11.566;2023-04-04T10:02:25;3.49;44.16
64111;DHT22;50401;48.188;11.566;2023-04-04T10:04:54;3.33;45.79
64111;DHT22;50401;48.188;11.566;2023-04-04T10:07:21;3.32;45.86
64111;DHT22;50401;48.188;11.566;2023-04-04T10:09:47;3.92;45.57
64111;DHT22;50401;48.188;11.566;2023-04-04T10:12:21;4.42;44.51
64111;DHT22;50401;48.188;11.566;2023-04-04T10:14:48;3.59;44.29
64111;DHT22;50401;48.188;11.566;2023-04-04T10:17:13;3.91;44.66
64111;DHT22;50401;48.188;11.566;2023-04-04T10:19:39;4.08;44.40
64111;DHT22;50401;48.188;11.566;2023-04-04T10:22:05;4.22;44.70
64111;DHT22;50401;48.188;11.566;2023-04-04T10:24:31;4.42;44.80
64111;DHT22;50401;48.188;11.566;2023-04-04T10:26:56;4.77;44.56
64111;DHT22;50401;48.188;11.566;2023-04-04T10:29:23;4.29;44.26
64111;DHT22;50401;48.188;11.566;2023-04-04T10:31:52;4.44;43.80
64111;DHT22;50401;48.188;11.566;2023-04-04T10:34:27;4.15;43.91
64111;DHT22;50401;48.188;11.566;2023-04-04T10:37:07;3.07;45.87
64111;DHT22;50401;48.188;11.566;2023-04-04T10:39:40;3.31;46.52
64111;DHT22;50401;48.188;11.566;2023-04-04T10:42:09;3.82;44.91
64111;DHT22;50401;48.188;11.566;2023-04-04T10:44:38;4.36;44.11
64111;DHT22;50401;48.188;11.566;2023-04-04T10:47:16;4.58;43.62
64111;DHT22;50401;48.188;11.566;2023-04-04T10:49:43;3.56;44.70
64111;DHT22;50401;48.188;11.566;2023-04-04T10:52:11;3.63;45.74
64111;DHT22;50401;48.188;11.566;2023-04-04T10:54:39;3.40;45.50
64111;DHT22;50401;48.188;11.566;2023-04-04T10:57:05;4.09;45.07
64111;DHT22;50401;48.188;11.566;2023-04-04T10:59:31;3.82;45.42
64111;DHT22;50401;48.188;11.566;2023-04-04T11:01:57;3.67;45.27
64111;DHT22;50401;48.188;11.566;2023-04-04T11:04:34;3.56;45.63
64111;DHT22;50401;48.188;11.566;2023-04-04T11:09:51;3.42;45.92
64111;DHT22;50401;48.188;11.566;2023-04-04T11:12:25;3.26;45.93
64111;DHT22;50401;48.188;11.566;2023-04-04T11:15:13;3.92;44.26
64111;DHT22;50401;48.188;11.566;2023-04-04T11:17:42;3.82;44.78
64111;DHT22;50401;48.188;11.566;2023-04-04T11:20:09;3.59;44.05
64111;DHT22;50401;48.188;11.566;2023-04-04T11:22:35;3.69;44.13
64111;DHT22;50401;48.188;11.566;2023-04-04T11:25:24;4.13;43.66
64111;DHT22;50401;48.188;11.566;2023-04-04T11:27:53;3.87;44.67
64111;DHT22;50401;48.188;11.566;2023-04-04T11:30:19;3.43;44.88
64111;DHT22;50401;48.188;11.566;2023-04-04T11:32:48;4.02;44.80
64111;DHT22;50401;48.188;11.566;2023-04-04T11:35:14;3.95;45.58
64111;DHT22;50401;48.188;11.566;2023-04-04T11:38:05;3.99;45.53
64111;DHT22;50401;48.188;11.566;2023-04-04T11:40:40;4.02;44.80
64111;DHT22;50401;48.188;11.566;2023-04-04T11:43:07;4.47;43.24
64111;DHT22;50401;48.188;11.566;2023-04-04T11:45:34;4.77;43.67
64111;DHT22;50401;48.188;11.566;2023-04-04T11:48:02;4.65;43.58
64111;DHT22;50401;48.188;11.566;2023-04-04T11:50:40;4.69;44.54
64111;DHT22;50401;48.188;11.566;2023-04-04T11:53:06;4.44;45.19
64111;DHT22;50401;48.188;11.566;2023-04-04T11:55:41;4.42;44.67
64111;DHT22;50401;48.188;11.566;2023-04-04T11:58:08;4.42;44.61
64111;DHT22;50401;48.188;11.566;2023-04-04T12:00:34;4.53;43.41
64111;DHT22;50401;48.188;11.566;2023-04-04T12:03:03;4.06;43.97
64111;DHT22;50401;48.188;11.566;2023-04-04T12:05:30;3.56;43.24
64111;DHT22;50401;48.188;11.566;2023-04-04T12:07:55;3.32;43.88
64111;DHT22;50401;48.188;11.566;2023-04-04T12:10:22;3.88;44.39
64111;DHT22;50401;48.188;11.566;2023-04-04T12:12:47;4.28;44.07
64111;DHT22;50401;48.188;11.566;2023-04-04T12:15:13;4.34;44.41
64111;DHT22;50401;48.188;11.566;2023-04-04T12:17:41;4.50;42.20
64111;DHT22;50401;48.188;11.566;2023-04-04T12:20:14;4.02;42.98
64111;DHT22;50401;48.188;11.566;2023-04-04T12:22:39;3.77;44.81
64111;DHT22;50401;48.188;11.566;2023-04-04T12:25:05;3.53;45.03
64111;DHT22;50401;48.188;11.566;2023-04-04T12:27:31;3.85;45.76
64111;DHT22;50401;48.188;11.566;2023-04-04T12:30:00;4.37;45.64
64111;DHT22;50401;48.188;11.566;2023-04-04T12:32:40;4.32;45.53
64111;DHT22;50401;48.188;11.566;2023-04-04T12:35:06;4.43;44.16
64111;DHT22;50401;48.188;11.566;2023-04-04T12:37:31;4.37;43.97
64111;DHT22;50401;48.188;11.566;2023-04-04T12:39:57;4.32;43.85
64111;DHT22;50401;48.188;11.566;2023-04-04T12:42:23;3.70;44.97
64111;DHT22;50401;48.188;11.566;2023-04-04T12:44:50;3.87;44.40
64111;DHT22;50401;48.188;11.566;2023-04-04T12:47:16;3.91;44.19
64111;DHT22;50401;48.188;11.566;2023-04-04T12:49:47;4.15;43.86
64111;DHT22;50401;48.188;11.566;2023-04-04T12:52:37;3.98;44.91
64111;DHT22;50401;48.188;11.566;2023-04-04T12:55:08;4.05;45.36
64111;DHT22;50401;48.188;11.566;2023-04-04T12:57:34;4.09;45.16
64111;DHT22;50401;48.188;11.566;2023-04-04T13:00:01;3.82;45.47
64111;DHT22;50401;48.188;11.566;2023-04-04T13:02:28;3.78;44.51
64111;DHT22;50401;48.188;11.566;2023-04-04T13:04:54;4.01;45.12
64111;DHT22;50401;48.188;11.566;2023-04-04T13:07:30;3.69;44.40
64111;DHT22;50401;48.188;11.566;2023-04-04T13:10:07;3.67;45.47
64111;DHT22;50401;48.188;11.566;2023-04-04T13:15:17;3.95;45.61
64111;DHT22;50401;48.188;11.566;2023-04-04T13:17:48;3.84;46.62
64111;DHT22;50401;48.188;11.566;2023-04-04T13:20:16;4.47;46.51
64111;DHT22;50401;48.188;11.566;2023-04-04T13:22:43;4.65;45.88
64111;DHT22;50401;48.188;11.566;2023-04-04T13:25:09;4.61;46.68
64111;DHT22;50401;48.188;11.566;2023-04-04T13:27:36;4.44;46.48
64111;DHT22;50401;48.188;11.566;2023-04-04T13:30:03;4.16;46.26
64111;DHT22;50401;48.188;11.566;2023-04-04T13:32:28;4.37;45.72
64111;DHT22;50401;48.188;11.566;2023-04-04T13:34:54;4.30;44.81
64111;DHT22;50401;48.188;11.566;2023-04-04T13:37:19;4.43;43.80
64111;DHT22;50401;48.188;11.566;2023-04-04T13:39:45;4.67;44.18
64111;DHT22;50401;48.188;11.566;2023-04-04T13:42:11;4.93;44.14
64111;DHT22;50401;48.188;11.566;2023-04-04T13:44:36;5.09;44.08
64111;DHT22;50401;48.188;11.566;2023-04-04T13:47:02;4.92;43.78
64111;DHT22;50401;48.188;11.566;2023-04-04T13:49:27;4.61;46.06
64111;DHT22;50401;48.188;11.566;2023-04-04T13:51:52;4.71;45.46
64111;DHT22;50401;48.188;11.566;2023-04-04T13:54:18;4.69;46.09
64111;DHT22;50401;48.188;11.566;2023-04-04T13:56:44;4.75;45.62
64111;DHT22;50401;48.188;11.566;2023-04-04T13:59:10;4.60;46.17
64111;DHT22;50401;48.188;11.566;2023-04-04T14:01:35;4.58;45.87
64111;DHT22;50401;48.188;11.566;2023-04-04T14:04:01;4.72;45.23
64111;DHT22;50401;48.188;11.566;2023-04-04T14:06:27;4.82;44.42
64111;DHT22;50401;48.188;11.566;2023-04-04T14:08:55;4.95;44.51
64111;DHT22;50401;48.188;11.566;2023-04-04T14:11:20;4.97;44.60
64111;DHT22;50401;48.188;11.566;2023-04-04T14:13:46;4.54;44.91
64111;DHT22;50401;48.188;11.566;2023-04-04T14:16:11;4.42;45.20
64111;DHT22;50401;48.188;11.566;2023-04-04T14:18:36;4.42;45.79
64111;DHT22;50401;48.188;11.566;2023-04-04T14:21:02;4.23;46.46
64111;DHT22;50401;48.188;11.566;2023-04-04T14:23:29;4.51;46.31
64111;DHT22;50401;48.188;11.566;2023-04-04T14:25:56;4.51;45.61
64111;DHT22;50401;48.188;11.566;2023-04-04T14:28:21;4.26;46.13
64111;DHT22;50401;48.188;11.566;2023-04-04T14:30:48;4.06;46.59
64111;DHT22;50401;48.188;11.566;2023-04-04T14:33:15;3.84;45.70
64111;DHT22;50401;48.188;11.566;2023-04-04T14:35:44;3.77;45.90
64111;DHT22;50401;48.188;11.566;2023-04-04T14:38:13;3.87;45.05
64111;DHT22;50401;48.188;11.566;2023-04-04T14:40:39;4.12;44.94
64111;DHT22;50401;48.188;11.566;2023-04-04T14:43:08;4.16;43.12
64111;DHT22;50401;48.188;11.566;2023-04-04T14:45:34;4.06;42.92
64111;DHT22;50401;48.188;11.566;2023-04-04T14:48:00;4.36;43.33
64111;DHT22;50401;48.188;11.566;2023-04-04T14:50:26;4.42;43.80
64111;DHT22;50401;48.188;11.566;2023-04-04T14:52:51;4.33;44.34
64111;DHT22;50401;48.188;11.566;2023-04-04T14:55:21;4.79;44.51
64111;DHT22;50401;48.188;11.566;2023-04-04T14:57:51;4.75;44.83
64111;DHT22;50401;48.188;11.566;2023-04-04T15:00:18;5.08;45.25
64111;DHT22;50401;48.188;11.566;2023-04-04T15:02:47;5.15;45.23
64111;DHT22;50401;48.188;11.566;2023-04-04T15:05:17;4.92;44.86
64111;DHT22;50401;48.188;11.566;2023-04-04T15:07:46;4.68;45.90
64111;DHT22;50401;48.188;11.566;2023-04-04T15:10:12;4.43;46.90
64111;DHT22;50401;48.188;11.566;2023-04-04T15:12:38;4.19;46.87
64111;DHT22;50401;48.188;11.566;2023-04-04T15:15:04;3.98;47.01
64111;DHT22;50401;48.188;11.566;2023-04-04T15:17:30;4.26;46.08
64111;DHT22;50401;48.188;11.566;2023-04-04T15:19:56;4.12;46.50
64111;DHT22;50401;48.188;11.566;2023-04-04T15:22:22;4.15;46.92
64111;DHT22;50401;48.188;11.566;2023-04-04T15:24:50;4.06;46.30
64111;DHT22;50401;48.188;11.566;2023-04-04T15:27:21;4.49;46.11
64111;DHT22;50401;48.188;11.566;2023-04-04T15:29:46;4.68;46.17
64111;DHT22;50401;48.188;11.566;2023-04-04T15:32:12;4.09;46.15
64111;DHT22;50401;48.188;11.566;2023-04-04T15:34:39;4.17;46.16
64111;DHT22;50401;48.188;11.566;2023-04-04T15:37:05;4.12;46.50
64111;DHT22;50401;48.188;11.566;2023-04-04T15:39:34;3.94;46.49
64111;DHT22;50401;48.188;11.566;2023-04-04T15:42:00;4.03;46.68
64111;DHT22;50401;48.188;11.566;2023-04-04T15:44:26;3.99;47.29
64111;DHT22;50401;48.188;11.566;2023-04-04T15:46:52;4.20;46.95
64111;DHT22;50401;48.188;11.566;2023-04-04T15:49:18;4.30;45.62
64111;DHT22;50401;48.188;11.566;2023-04-04T15:51:44;4.33;45.17
64111;DHT22;50401;48.188;11.566;2023-04-04T15:54:11;4.40;44.89
64111;DHT22;50401;48.188;11.566;2023-04-04T15:56:37;4.47;44.82
64111;DHT22;50401;48.188;11.566;2023-04-04T15:59:04;4.50;44.71
64111;DHT22;50401;48.188;11.566;2023-04-04T16:01:32;4.53;45.08
64111;DHT22;50401;48.188;11.566;2023-04-04T16:03:58;4.62;45.69
64111;DHT22;50401;48.188;11.566;2023-04-04T16:06:24;4.49;44.55
64111;DHT22;50401;48.188;11.566;2023-04-04T16:08:50;4.46;43.73
64111;DHT22;50401;48.188;11.566;2023-04-04T16:11:19;4.08;44.77
64111;DHT22;50401;48.188;11.566;2023-04-04T16:13:46;4.30;44.80
64111;DHT22;50401;48.188;11.566;2023-04-04T16:16:12;4.37;45.21
64111;DHT22;50401;48.188;11.566;2023-04-04T16:18:39;4.15;45.95
64111;DHT22;50401;48.188;11.566;2023-04-04T16:21:07;4.03;46.12
64111;DHT22;50401;48.188;11.566;2023-04-04T16:23:33;4.19;46.27
64111;DHT22;50401;48.188;11.566;2023-04-04T16:25:59;4.29;45.94
64111;DHT22;50401;48.188;11.566;2023-04-04T16:28:25;4.39;45.99
64111;DHT22;50401;48.188;11.566;2023-04-04T16:30:51;4.53;45.56
64111;DHT22;50401;48.188;11.566;2023-04-04T16:33:19;4.58;46.11
64111;DHT22;50401;48.188;11.566;2023-04-04T16:35:48;4.12;46.85
64111;DHT22;50401;48.188;11.566;2023-04-04T16:38:14;4.29;47.47
64111;DHT22;50401;48.188;11.566;2023-04-04T16:40:45;4.42;47.26
64111;DHT22;50401;48.188;11.566;2023-04-04T16:43:11;4.33;48.00
64111;DHT22;50401;48.188;11.566;2023-04-04T16:45:37;4.37;47.01
64111;DHT22;50401;48.188;11.566;2023-04-04T16:48:03;4.37;46.95
64111;DHT22;50401;48.188;11.566;2023-04-04T16:50:30;4.28;46.53
64111;DHT22;50401;48.188;11.566;2023-04-04T16:52:56;4.28;46.31
64111;DHT22;50401;48.188;11.566;2023-04-04T16:55:22;4.13;46.50
64111;DHT22;50401;48.188;11.566;2023-04-04T16:57:51;3.99;46.57
64111;DHT22;50401;48.188;11.566;2023-04-04T17:00:17;3.91;46.88
64111;DHT22;50401;48.188;11.566;2023-04-04T17:02:43;3.99;46.45
64111;DHT22;50401;48.188;11.566;2023-04-04T17:05:20;4.03;46.33
64111;DHT22;50401;48.188;11.566;2023-04-04T17:07:48;4.01;46.50
64111;DHT22;50401;48.188;11.566;2023-04-04T17:10:15;3.78;46.95
64111;DHT22;50401;48.188;11.566;2023-04-04T17:15:20;3.70;46.51
64111;DHT22;50401;48.188;11.566;2023-04-04T17:17:51;3.75;46.84
64111;DHT22;50401;48.188;11.566;2023-04-04T17:20:16;3.56;46.50
64111;DHT22;50401;48.188;11.566;2023-04-04T17:22:43;3.69;46.84
64111;DHT22;50401;48.188;11.566;2023-04-04T17:25:18;3.85;46.28
64111;DHT22;50401;48.188;11.566;2023-04-04T17:27:54;3.84;46.53
64111;DHT22;50401;48.188;11.566;2023-04-04T17:30:20;3.91;46.49
64111;DHT22;50401;48.188;11.566;2023-04-04T17:32:47;3.97;46.47
64111;DHT22;50401;48.188;11.566;2023-04-04T17:35:16;3.98;46.63
64111;DHT22;50401;48.188;11.566;2023-04-04T17:37:44;3.92;46.53